Time;durP1;ratioP1;P1;durP2;ratioP2;P2;SDS_P1;SDS_P2;PMS_P1;PMS_P2;Temp;Humidity;BMP_temperature;BMP_pressure;BME280_temperature;BME280_humidity;BME280_pressure;Samples;Min_cycle;Max_cycle;Signal;HPM_P1;HPM_P2
2022/03/14 00:00:41;;;;;;;4.32;2.55;;;11.40;99.90;;;;;;6277657;22;20312;-93
2022/03/14 00:03:25;;;;;;;3.08;1.70;;;11.40;99.90;;;;;;6251627;22;20111;-93
2022/03/14 00:06:03;;;;;;;4.38;2.35;;;11.40;99.90;;;;;;6252150;22;20423;-93
2022/03/14 00:08:50;;;;;;;3.63;2.08;;;11.40;99.90;;;;;;6250983;22;20070;-94
2022/03/14 00:11:27;;;;;;;5.93;2.17;;;11.40;99.90;;;;;;6250503;22;20019;-93
2022/03/14 00:13:57;;;;;;;3.57;1.90;;;11.40;99.90;;;;;;6250871;22;20020;-93
2022/03/14 00:16:35;;;;;;;8.35;2.50;;;11.40;99.90;;;;;;6252714;22;20015;-93
2022/03/14 00:19:12;;;;;;;4.13;2.40;;;11.40;99.90;;;;;;6251268;22;20020;-94
2022/03/14 00:21:45;;;;;;;5.10;1.88;;;11.40;99.90;;;;;;6251339;22;20019;-94
2022/03/14 00:24:15;;;;;;;5.63;1.90;;;11.30;99.90;;;;;;6227086;22;20024;-93
2022/03/14 00:26:50;;;;;;;2.85;1.67;;;11.30;99.90;;;;;;6253413;22;20069;-93
2022/03/14 00:29:21;;;;;;;6.30;2.75;;;11.30;99.90;;;;;;6278033;22;20019;-94
2022/03/14 00:31:51;;;;;;;3.63;2.05;;;11.20;99.90;;;;;;6251014;22;20023;-93
2022/03/14 00:34:25;;;;;;;5.20;2.17;;;11.20;99.90;;;;;;6277651;22;20020;-93
2022/03/14 00:36:55;;;;;;;3.08;1.73;;;11.20;99.90;;;;;;6252255;22;20015;-92
2022/03/14 00:39:25;;;;;;;5.40;2.05;;;11.20;99.90;;;;;;6251192;22;20041;-93
2022/03/14 00:41:58;;;;;;;5.53;2.22;;;11.20;99.90;;;;;;6251390;22;20027;-93
2022/03/14 00:44:25;;;;;;;3.45;1.70;;;11.20;99.90;;;;;;6225381;22;20012;-93
2022/03/14 00:46:55;;;;;;;3.25;2.05;;;11.20;99.90;;;;;;6251522;22;20022;-93
2022/03/14 00:49:26;;;;;;;6.15;1.98;;;11.20;99.90;;;;;;6226393;22;20427;-94
2022/03/14 00:51:55;;;;;;;3.70;2.17;;;11.20;99.90;;;;;;6251452;22;20027;-93
2022/03/14 00:54:24;;;;;;;4.32;2.22;;;11.10;99.90;;;;;;6251754;22;20015;-93
2022/03/14 00:56:53;;;;;;;2.78;1.70;;;11.20;99.90;;;;;;6278259;22;20091;-93
2022/03/14 00:59:24;;;;;;;3.45;1.67;;;11.10;99.90;;;;;;6251473;22;20020;-94
2022/03/14 01:01:52;;;;;;;1.63;1.52;;;11.10;99.90;;;;;;6250660;22;20011;-94
2022/03/14 01:04:31;;;;;;;4.43;1.80;;;11.10;99.90;;;;;;6250623;22;20095;-94
2022/03/14 01:07:19;;;;;;;2.53;1.42;;;11.10;99.90;;;;;;6228293;22;20018;-93
2022/03/14 01:09:55;;;;;;;4.00;1.73;;;11.10;99.90;;;;;;6226875;22;20027;-93
2022/03/14 01:12:34;;;;;;;2.72;1.40;;;11.10;99.90;;;;;;6227844;22;20024;-93
2022/03/14 01:18:25;;;;;;;2.40;1.55;;;11.10;99.90;;;;;;6250787;22;20047;-95
2022/03/14 01:21:02;;;;;;;2.97;1.60;;;11.00;99.90;;;;;;6227022;22;20012;-92
2022/03/14 01:23:42;;;;;;;1.52;1.13;;;11.00;99.90;;;;;;6227117;22;20100;-93
2022/03/14 01:26:17;;;;;;;2.75;1.75;;;11.00;99.90;;;;;;6277344;22;20038;-94
2022/03/14 01:28:52;;;;;;;4.53;1.70;;;11.00;99.90;;;;;;6250266;22;20016;-93
2022/03/14 01:31:22;;;;;;;3.88;1.83;;;11.00;99.90;;;;;;6251073;22;20019;-92
2022/03/14 01:33:58;;;;;;;3.13;1.67;;;11.00;99.90;;;;;;6252398;22;20098;-93
2022/03/14 01:36:34;;;;;;;2.80;1.50;;;10.90;99.90;;;;;;6251311;22;20020;-92
2022/03/14 01:39:04;;;;;;;;;;;11.00;99.90;;;;;;6252285;22;20011;-93
2022/03/14 01:41:38;;;;;;;5.28;1.90;;;10.90;99.90;;;;;;6254525;22;19961;-93
2022/03/14 01:44:10;;;;;;;2.80;1.55;;;10.90;99.90;;;;;;6252390;22;20069;-93
2022/03/14 01:46:47;;;;;;;3.30;1.95;;;10.90;99.90;;;;;;6229171;22;20022;-94
2022/03/14 01:49:18;;;;;;;4.90;1.50;;;10.90;99.90;;;;;;6253434;22;20019;-93
2022/03/14 01:51:48;;;;;;;4.15;1.80;;;10.90;99.90;;;;;;6253127;22;20043;-93
2022/03/14 01:54:20;;;;;;;3.45;1.63;;;10.90;99.90;;;;;;6278583;22;20028;-93
2022/03/14 01:56:54;;;;;;;3.30;1.85;;;10.90;99.90;;;;;;6233971;22;20473;-93
2022/03/14 01:59:26;;;;;;;2.75;1.63;;;10.90;99.90;;;;;;6262361;22;20015;-93
2022/03/14 02:02:13;;;;;;;5.07;1.80;;;10.80;99.90;;;;;;6252620;22;20066;-93
2022/03/14 02:04:51;;;;;;;3.58;1.98;;;10.90;99.90;;;;;;6252935;22;20039;-93
2022/03/14 02:07:23;;;;;;;1.98;1.50;;;10.80;99.90;;;;;;6252429;22;20019;-93
2022/03/14 02:09:58;;;;;;;6.50;1.88;;;10.80;99.90;;;;;;6278434;22;20020;-93
2022/03/14 02:12:30;;;;;;;3.17;1.92;;;10.80;99.90;;;;;;6226666;22;20451;-94
2022/03/14 02:15:05;;;;;;;2.85;1.77;;;10.80;99.90;;;;;;6252326;22;20023;-93
2022/03/14 02:17:43;;;;;;;2.38;1.40;;;10.80;99.90;;;;;;6253369;22;20074;-93
2022/03/14 02:20:16;;;;;;;4.95;1.80;;;10.80;99.90;;;;;;6254402;22;20419;-93
2022/03/14 02:22:51;;;;;;;2.47;1.40;;;10.70;99.90;;;;;;6227637;22;20315;-93
2022/03/14 02:25:25;;;;;;;5.20;1.80;;;10.70;99.90;;;;;;6252271;22;20446;-93
2022/03/14 02:27:55;;;;;;;4.35;1.90;;;10.70;99.90;;;;;;6277698;22;20018;-93
2022/03/14 02:30:24;;;;;;;2.58;1.50;;;10.70;99.90;;;;;;6252103;22;20106;-93
2022/03/14 02:32:55;;;;;;;2.38;1.48;;;10.70;99.90;;;;;;6252068;22;20030;-93
2022/03/14 02:35:23;;;;;;;2.92;1.95;;;10.70;99.90;;;;;;6252802;22;20030;-92
2022/03/14 02:37:52;;;;;;;4.45;1.80;;;10.60;99.90;;;;;;6227183;22;20027;-92
2022/03/14 02:40:21;;;;;;;3.83;2.05;;;10.70;99.90;;;;;;6252390;22;20102;-94
2022/03/14 02:42:50;;;;;;;3.55;1.73;;;10.70;99.90;;;;;;6252733;22;20022;-92
2022/03/14 02:45:17;;;;;;;3.28;1.70;;;10.60;99.90;;;;;;6252066;22;20016;-92
2022/03/14 02:47:45;;;;;;;3.55;1.75;;;10.60;99.90;;;;;;6277582;22;20046;-92
2022/03/14 02:50:12;;;;;;;2.50;1.70;;;10.60;99.90;;;;;;6252312;22;20026;-92
2022/03/14 02:52:42;;;;;;;4.53;1.95;;;10.60;99.90;;;;;;6251154;22;20051;-92
2022/03/14 02:55:09;;;;;;;4.28;1.65;;;10.60;99.90;;;;;;6251663;22;20024;-92
2022/03/14 02:57:36;;;;;;;2.20;1.15;;;10.50;99.90;;;;;;6226569;22;20440;-92
2022/03/14 03:00:05;;;;;;;3.33;1.55;;;10.50;99.90;;;;;;6252381;22;20030;-92
2022/03/14 03:02:35;;;;;;;4.32;1.92;;;10.50;99.90;;;;;;6251762;22;20015;-93
2022/03/14 03:05:05;;;;;;;3.03;1.70;;;10.50;99.90;;;;;;6252705;22;20020;-92
2022/03/14 03:07:32;;;;;;;5.57;2.05;;;10.50;99.90;;;;;;6252400;22;20016;-92
2022/03/14 03:10:00;;;;;;;3.90;2.10;;;10.50;99.90;;;;;;6251828;22;20012;-93
2022/03/14 03:12:31;;;;;;;2.25;1.52;;;10.50;99.90;;;;;;6252157;22;20020;-94
2022/03/14 03:14:58;;;;;;;3.05;1.70;;;10.40;99.90;;;;;;6226246;22;20023;-92
2022/03/14 03:17:34;;;;;;;5.50;1.98;;;10.40;99.90;;;;;;6227865;22;20019;-93
2022/03/14 03:20:04;;;;;;;;;;;10.50;99.90;;;;;;6228310;22;20066;-93
2022/03/14 03:22:42;;;;;;;3.00;1.88;;;10.40;99.90;;;;;;6250297;22;19915;-93
2022/03/14 03:25:13;;;;;;;3.33;2.00;;;10.40;99.90;;;;;;6251796;22;20012;-94
2022/03/14 03:27:49;;;;;;;2.55;1.73;;;10.40;99.90;;;;;;6252158;22;20046;-93
2022/03/14 03:30:27;;;;;;;6.80;2.45;;;10.40;99.90;;;;;;6252741;22;20050;-93
2022/03/14 03:32:59;;;;;;;4.72;2.30;;;10.30;99.90;;;;;;6251715;22;20071;-92
2022/03/14 03:35:30;;;;;;;4.97;2.38;;;10.30;99.90;;;;;;6251604;22;20020;-92
2022/03/14 03:38:03;;;;;;;4.78;1.85;;;10.30;99.90;;;;;;6227300;22;20019;-92
2022/03/14 03:40:35;;;;;;;6.28;1.90;;;10.20;99.90;;;;;;6278792;22;20046;-93
2022/03/14 03:43:03;;;;;;;6.78;2.35;;;10.20;99.90;;;;;;6251662;22;20074;-92
2022/03/14 03:45:35;;;;;;;5.13;2.38;;;10.20;99.90;;;;;;6252592;22;20016;-92
2022/03/14 03:48:05;;;;;;;5.25;2.60;;;10.20;99.90;;;;;;6251690;22;20039;-92
2022/03/14 03:50:38;;;;;;;6.13;2.67;;;10.20;99.90;;;;;;6227332;22;20026;-92
2022/03/14 03:53:11;;;;;;;4.50;2.70;;;10.20;99.90;;;;;;6251962;22;20028;-92
2022/03/14 03:55:40;;;;;;;9.93;4.05;;;10.20;99.90;;;;;;6277296;22;20074;-92
2022/03/14 03:58:09;;;;;;;5.75;3.03;;;10.20;99.90;;;;;;6251885;22;20390;-92
2022/03/14 04:00:41;;;;;;;5.25;2.75;;;10.20;99.90;;;;;;6276975;22;20104;-93
2022/03/14 04:03:09;;;;;;;8.02;4.35;;;10.20;99.90;;;;;;6251210;22;20024;-92
2022/03/14 04:05:39;;;;;;;5.63;3.35;;;10.20;99.90;;;;;;6251566;22;20058;-93
2022/03/14 04:08:11;;;;;;;7.78;4.35;;;10.10;99.90;;;;;;6251955;22;20090;-93
2022/03/14 04:10:41;;;;;;;8.63;4.38;;;10.10;99.90;;;;;;6277210;22;20047;-93
2022/03/14 04:13:08;;;;;;;7.47;4.57;;;10.20;99.90;;;;;;6251353;22;20036;-92
2022/03/14 04:15:54;;;;;;;6.95;4.47;;;10.10;99.90;;;;;;6251858;22;20024;-93
2022/03/14 04:18:25;;;;;;;7.07;4.63;;;10.10;99.90;;;;;;6251080;22;20023;-93
2022/03/14 04:20:56;;;;;;;8.90;4.20;;;10.10;99.90;;;;;;6251256;22;20050;-93
2022/03/14 04:23:31;;;;;;;6.57;3.58;;;10.10;99.90;;;;;;6250853;22;20039;-93
2022/03/14 04:25:58;;;;;;;5.55;3.70;;;10.10;99.90;;;;;;6252305;22;20042;-93
2022/03/14 04:28:28;;;;;;;7.93;4.68;;;10.10;99.90;;;;;;6226375;22;20465;-92
2022/03/14 04:30:55;;;;;;;8.52;5.53;;;10.00;99.90;;;;;;6250699;22;20098;-93
2022/03/14 04:33:22;;;;;;;8.00;4.45;;;10.00;99.90;;;;;;6251306;22;20347;-93
2022/03/14 04:35:49;;;;;;;8.45;5.00;;;10.00;99.90;;;;;;6250463;22;20024;-93
2022/03/14 04:38:18;;;;;;;9.00;5.20;;;10.00;99.90;;;;;;6250669;22;20459;-94
2022/03/14 04:40:51;;;;;;;10.68;6.13;;;10.00;99.90;;;;;;6251684;22;20036;-93
2022/03/14 04:43:21;;;;;;;13.25;5.75;;;10.00;99.90;;;;;;6250925;22;20046;-93
2022/03/14 04:45:52;;;;;;;11.88;7.28;;;10.00;99.90;;;;;;6250588;22;20039;-94
2022/03/14 04:48:23;;;;;;;11.38;6.80;;;10.00;99.90;;;;;;6251673;22;20320;-93
2022/03/14 04:50:52;;;;;;;10.95;5.85;;;10.00;99.90;;;;;;6251506;22;20027;-93
2022/03/14 04:53:22;;;;;;;12.65;7.00;;;10.00;99.90;;;;;;6225650;22;20103;-94
2022/03/14 04:55:52;;;;;;;14.55;8.32;;;10.00;99.90;;;;;;6250891;22;20094;-93
2022/03/14 04:58:19;;;;;;;11.25;6.20;;;9.90;99.90;;;;;;6249284;22;20459;-93
2022/03/14 05:00:47;;;;;;;12.27;7.32;;;10.00;99.90;;;;;;6251294;22;20497;-92
2022/03/14 05:03:14;;;;;;;10.55;6.95;;;9.90;99.90;;;;;;6249954;22;20043;-92
2022/03/14 05:05:54;;;;;;;14.25;6.45;;;9.90;99.90;;;;;;6250693;22;20023;-95
2022/03/14 05:08:22;;;;;;;11.95;7.93;;;9.90;99.90;;;;;;6252296;22;20011;-92
2022/03/14 05:10:51;;;;;;;14.18;9.00;;;9.90;99.90;;;;;;6252441;22;20015;-92
2022/03/14 05:13:18;;;;;;;13.40;8.13;;;9.90;99.90;;;;;;6251324;22;20015;-92
2022/03/14 05:16:23;;;;;;;16.40;9.52;;;9.90;99.90;;;;;;6228174;22;20046;-94
2022/03/14 05:19:15;;;;;;;16.30;8.55;;;9.90;99.90;;;;;;6167480;23;20021;-94
2022/03/14 05:21:57;;;;;;;15.02;9.18;;;9.90;99.90;;;;;;6211129;22;20016;-94
2022/03/14 05:24:26;;;;;;;12.70;8.10;;;9.90;99.90;;;;;;6251041;22;20023;-92
2022/03/14 05:27:00;;;;;;;13.95;8.07;;;9.90;99.90;;;;;;6252730;22;20020;-92
2022/03/14 05:29:30;;;;;;;13.60;7.22;;;9.80;99.90;;;;;;6250430;22;20020;-92
2022/03/14 05:31:58;;;;;;;16.52;10.27;;;9.90;99.90;;;;;;6250420;22;20073;-93
2022/03/14 05:34:27;;;;;;;17.52;10.93;;;9.80;99.90;;;;;;6225732;22;20039;-93
2022/03/14 05:36:54;;;;;;;15.30;9.55;;;9.80;99.90;;;;;;6250636;22;20027;-92
2022/03/14 05:39:21;;;;;;;20.92;12.50;;;9.70;99.90;;;;;;6250356;22;20439;-92
2022/03/14 05:41:49;;;;;;;16.35;9.80;;;9.70;99.90;;;;;;6250003;22;20020;-93
2022/03/14 05:44:17;;;;;;;23.73;12.48;;;9.70;99.90;;;;;;6249987;22;20020;-92
2022/03/14 05:46:44;;;;;;;19.33;10.95;;;9.70;99.90;;;;;;6224660;22;20016;-91
2022/03/14 05:49:14;;;;;;;19.75;12.23;;;9.70;99.90;;;;;;6251173;22;20031;-92
2022/03/14 05:52:09;;;;;;;17.02;9.90;;;9.70;99.90;;;;;;6225746;22;20023;-93
2022/03/14 05:54:38;;;;;;;25.00;14.63;;;9.70;99.90;;;;;;6253032;22;20477;-93
2022/03/14 05:57:14;;;;;;;26.75;12.45;;;9.70;99.90;;;;;;6229029;22;20016;-93
2022/03/14 05:59:53;;;;;;;22.35;12.25;;;9.70;99.90;;;;;;6256565;22;20011;-93
2022/03/14 06:02:27;;;;;;;25.20;12.60;;;9.70;99.90;;;;;;6253453;22;20016;-93
2022/03/14 06:05:34;;;;;;;24.80;13.43;;;9.80;99.90;;;;;;6228863;22;20466;-93
2022/03/14 06:08:41;;;;;;;35.55;19.02;;;9.70;99.90;;;;;;6260054;22;20095;-94
2022/03/14 06:11:34;;;;;;;72.10;45.72;;;9.70;99.90;;;;;;6254291;22;20019;-91
2022/03/14 06:14:12;;;;;;;35.67;18.50;;;9.70;99.90;;;;;;6249948;22;20442;-91
2022/03/14 06:16:39;;;;;;;34.22;19.90;;;9.60;99.90;;;;;;6250121;22;20035;-90
2022/03/14 06:19:06;;;;;;;33.33;19.05;;;9.60;99.90;;;;;;6250133;22;20423;-91
2022/03/14 06:21:39;;;;;;;36.03;18.77;;;9.60;99.90;;;;;;6250314;22;20024;-91
2022/03/14 06:24:09;;;;;;;29.83;16.92;;;9.60;99.90;;;;;;6249388;22;20044;-91
2022/03/14 06:26:36;;;;;;;34.03;17.15;;;9.60;99.90;;;;;;6225089;22;20026;-91
2022/03/14 06:29:04;;;;;;;28.63;16.52;;;9.60;99.90;;;;;;6277945;22;20320;-90
2022/03/14 06:31:40;;;;;;;30.08;16.42;;;9.60;99.90;;;;;;6223999;22;20051;-91
2022/03/14 06:34:10;;;;;;;25.95;13.57;;;9.60;99.90;;;;;;6250774;22;20070;-91
2022/03/14 06:36:40;;;;;;;28.98;14.63;;;9.60;99.90;;;;;;6253015;22;20346;-91
2022/03/14 06:39:11;;;;;;;24.25;13.45;;;9.60;99.90;;;;;;6252430;22;20023;-92
2022/03/14 06:41:42;;;;;;;23.88;12.98;;;9.60;99.90;;;;;;6251888;22;20016;-91
2022/03/14 06:44:09;;;;;;;24.08;12.55;;;9.60;99.90;;;;;;6251667;22;20347;-91
2022/03/14 06:46:40;;;;;;;25.80;12.32;;;9.60;99.90;;;;;;6227218;22;20346;-91
2022/03/14 06:49:13;;;;;;;20.15;11.65;;;9.60;99.90;;;;;;6251189;22;20043;-91
2022/03/14 06:51:42;;;;;;;26.50;12.50;;;9.60;99.90;;;;;;6226863;22;20025;-91
2022/03/14 06:54:17;;;;;;;18.38;9.80;;;9.60;99.90;;;;;;6278752;22;20020;-89
2022/03/14 06:56:47;;;;;;;23.65;11.70;;;9.60;99.90;;;;;;6252101;22;20023;-90
2022/03/14 06:59:21;;;;;;;21.60;10.57;;;9.60;99.90;;;;;;6251245;22;20107;-92
2022/03/14 07:01:52;;;;;;;15.02;9.07;;;9.60;99.90;;;;;;6251836;22;20042;-90
2022/03/14 07:04:29;;;;;;;16.60;8.93;;;9.60;99.90;;;;;;6277773;22;20016;-90
2022/03/14 07:07:03;;;;;;;16.27;7.95;;;9.60;99.90;;;;;;6251450;22;20012;-92
2022/03/14 07:09:31;;;;;;;15.88;7.90;;;9.60;99.90;;;;;;6251249;22;20043;-91
2022/03/14 07:12:01;;;;;;;18.58;8.48;;;9.50;99.90;;;;;;6251909;22;20024;-91
2022/03/14 07:14:28;;;;;;;15.70;6.63;;;9.50;99.90;;;;;;6227003;22;20024;-92
2022/03/14 07:16:57;;;;;;;12.73;5.85;;;9.60;99.90;;;;;;6227480;22;20074;-90
2022/03/14 07:19:30;;;;;;;14.38;7.82;;;9.50;99.90;;;;;;6278281;22;20038;-91
2022/03/14 07:22:03;;;;;;;10.77;5.35;;;9.50;99.90;;;;;;6251024;22;20015;-90
2022/03/14 07:24:31;;;;;;;12.18;6.05;;;9.50;99.90;;;;;;6251656;22;20018;-90
2022/03/14 07:27:01;;;;;;;11.02;5.15;;;9.50;99.90;;;;;;6226272;22;20432;-92
2022/03/14 07:29:31;;;;;;;16.47;5.70;;;9.50;99.90;;;;;;6227010;22;20011;-92
2022/03/14 07:32:00;;;;;;;8.60;5.30;;;9.50;99.90;;;;;;6251313;22;20023;-91
2022/03/14 07:34:31;;;;;;;7.45;3.35;;;9.50;99.90;;;;;;6250180;22;20015;-90
2022/03/14 07:36:58;;;;;;;6.95;3.92;;;9.50;99.90;;;;;;6251409;22;20517;-91
2022/03/14 07:39:25;;;;;;;8.73;5.38;;;9.50;99.90;;;;;;6251227;22;20086;-91
2022/03/14 07:41:56;;;;;;;11.88;4.65;;;9.50;99.90;;;;;;6250426;22;20015;-90
2022/03/14 07:44:26;;;;;;;10.43;4.28;;;9.60;99.90;;;;;;6226340;22;20062;-90
2022/03/14 07:46:53;;;;;;;8.60;3.55;;;9.50;99.90;;;;;;6250381;22;20012;-90
2022/03/14 07:49:23;;;;;;;8.77;3.00;;;9.50;99.90;;;;;;6250744;22;20015;-90
2022/03/14 07:51:50;;;;;;;4.53;2.88;;;9.60;99.90;;;;;;6250201;22;20027;-90
2022/03/14 07:54:20;;;;;;;5.60;2.97;;;9.50;99.90;;;;;;6250640;22;20019;-90
2022/03/14 07:56:47;;;;;;;11.32;3.33;;;9.50;99.90;;;;;;6277352;22;20019;-90
2022/03/14 07:59:14;;;;;;;6.85;2.80;;;9.60;99.90;;;;;;6250053;22;20020;-89
2022/03/14 08:01:41;;;;;;;6.07;3.03;;;9.50;99.90;;;;;;6276904;22;20039;-90
2022/03/14 08:04:12;;;;;;;7.63;2.25;;;9.50;99.90;;;;;;6250830;22;20018;-90
2022/03/14 08:06:43;;;;;;;5.30;2.05;;;9.50;99.90;;;;;;6277379;22;20019;-90
2022/03/14 08:09:10;;;;;;;5.20;2.78;;;9.50;99.90;;;;;;6277049;22;20012;-90
2022/03/14 08:11:40;;;;;;;4.72;2.20;;;9.50;99.90;;;;;;6250301;22;20447;-90
2022/03/14 08:14:07;;;;;;;10.48;2.60;;;9.50;99.90;;;;;;6250177;22;20346;-91
2022/03/14 08:16:35;;;;;;;5.57;2.65;;;9.50;99.90;;;;;;6277534;22;20027;-91
2022/03/14 08:19:04;;;;;;;5.93;2.45;;;9.60;99.90;;;;;;6250589;22;20027;-91
2022/03/14 08:21:36;;;;;;;9.32;2.10;;;9.60;99.90;;;;;;6249865;22;20023;-92
2022/03/14 08:24:05;;;;;;;5.97;1.85;;;9.60;99.90;;;;;;6277063;22;20035;-91
2022/03/14 08:26:34;;;;;;;6.20;2.40;;;9.60;99.90;;;;;;6226000;22;20035;-91
2022/03/14 08:29:02;;;;;;;7.65;2.97;;;9.50;99.90;;;;;;6276653;22;20016;-91
2022/03/14 08:31:31;;;;;;;7.20;2.63;;;9.50;99.90;;;;;;6224556;22;20031;-91
2022/03/14 08:33:59;;;;;;;7.68;2.45;;;9.50;99.90;;;;;;6276439;22;20443;-91
2022/03/14 08:36:27;;;;;;;12.32;3.20;;;9.60;99.90;;;;;;6225081;22;20078;-91
2022/03/14 08:38:54;;;;;;;13.88;2.67;;;9.60;99.90;;;;;;6249817;22;20073;-91
2022/03/14 08:41:21;;;;;;;6.25;3.05;;;9.60;99.90;;;;;;6249911;22;20046;-91
2022/03/14 08:43:48;;;;;;;6.53;2.72;;;9.60;99.90;;;;;;6249870;22;20026;-91
2022/03/14 08:46:15;;;;;;;10.43;4.28;;;9.60;99.90;;;;;;6224981;22;20019;-90
2022/03/14 08:48:42;;;;;;;13.27;4.32;;;9.60;99.90;;;;;;6250663;22;20502;-90
2022/03/14 08:51:16;;;;;;;;;;;9.70;99.90;;;;;;6277544;22;20039;-90
2022/03/14 08:53:43;;;;;;;9.07;3.67;;;9.70;99.90;;;;;;6249006;22;19923;-92
2022/03/14 08:56:14;;;;;;;9.55;4.65;;;9.70;99.90;;;;;;6249658;22;20041;-91
2022/03/14 08:58:45;;;;;;;12.35;4.38;;;9.70;99.90;;;;;;6277067;22;20030;-91
2022/03/14 09:01:17;;;;;;;11.80;4.32;;;9.70;99.90;;;;;;6276430;22;20012;-91
2022/03/14 09:03:44;;;;;;;17.27;5.88;;;9.80;99.90;;;;;;6249680;22;20134;-90
2022/03/14 09:06:13;;;;;;;17.27;6.38;;;9.70;99.90;;;;;;6249427;22;20287;-90
2022/03/14 09:08:47;;;;;;;11.50;4.30;;;9.70;99.90;;;;;;6249785;22;20070;-91
2022/03/14 09:11:18;;;;;;;11.85;5.50;;;9.80;99.90;;;;;;6225406;22;20070;-91
2022/03/14 09:13:45;;;;;;;18.13;6.53;;;9.80;99.90;;;;;;6250118;22;20016;-91
2022/03/14 09:16:15;;;;;;;19.40;6.13;;;9.80;99.90;;;;;;6200609;22;20051;-90
2022/03/14 09:18:45;;;;;;;21.38;7.18;;;9.80;99.90;;;;;;6277071;22;20038;-91
2022/03/14 09:21:19;;;;;;;20.70;8.75;;;9.80;99.90;;;;;;6250573;22;20043;-90
2022/03/14 09:24:06;;;;;;;14.25;7.65;;;9.80;99.90;;;;;;6249257;22;20039;-90
2022/03/14 09:26:35;;;;;;;21.83;10.50;;;9.90;99.90;;;;;;6250195;22;20350;-92
2022/03/14 09:29:03;;;;;;;21.10;9.10;;;9.90;99.90;;;;;;6277314;22;20023;-92
2022/03/14 09:31:33;;;;;;;19.83;8.23;;;9.90;99.90;;;;;;6250928;22;20019;-90
2022/03/14 09:34:02;;;;;;;22.10;8.73;;;10.00;99.90;;;;;;6276879;22;20020;-90
2022/03/14 09:36:31;;;;;;;14.18;7.13;;;10.00;99.90;;;;;;6249618;22;20034;-91
2022/03/14 09:39:04;;;;;;;16.80;6.93;;;10.00;99.90;;;;;;6249578;22;20391;-91
2022/03/14 09:41:35;;;;;;;20.75;8.63;;;10.10;99.90;;;;;;6250284;22;20095;-91
2022/03/14 09:44:10;;;;;;;29.30;9.93;;;10.10;99.90;;;;;;6275498;22;20016;-91
2022/03/14 09:46:46;;;;;;;20.17;9.70;;;10.10;99.90;;;;;;6250641;22;20028;-92
2022/03/14 09:49:17;;;;;;;17.92;9.15;;;10.10;99.90;;;;;;6275923;22;20019;-92
2022/03/14 09:51:47;;;;;;;21.10;8.65;;;10.10;99.90;;;;;;6224339;22;20464;-91
2022/03/14 09:54:14;;;;;;;21.42;9.95;;;10.20;99.90;;;;;;6250174;22;20054;-93
2022/03/14 09:56:46;;;;;;;19.77;9.95;;;10.20;99.90;;;;;;6275311;22;20012;-91
2022/03/14 09:59:13;;;;;;;23.92;9.57;;;10.20;99.90;;;;;;6250092;22;20435;-90
2022/03/14 10:01:46;;;;;;;19.27;9.07;;;10.20;99.90;;;;;;6249364;22;20094;-91
2022/03/14 10:04:14;;;;;;;23.38;10.18;;;10.20;99.90;;;;;;6251646;22;20016;-91
2022/03/14 10:06:41;;;;;;;18.45;8.93;;;10.20;99.90;;;;;;6251986;22;20020;-91
2022/03/14 10:09:16;;;;;;;19.83;9.20;;;10.20;99.90;;;;;;6252880;22;20008;-92
2022/03/14 10:12:00;;;;;;;20.70;8.70;;;10.20;99.90;;;;;;6250992;22;20057;-91
2022/03/14 10:14:27;;;;;;;24.65;10.23;;;10.20;99.90;;;;;;6251156;22;20020;-90
2022/03/14 10:16:55;;;;;;;18.73;9.82;;;10.20;99.90;;;;;;6252036;22;20026;-93
2022/03/14 10:19:34;;;;;;;26.65;9.18;;;10.20;99.90;;;;;;6251129;22;20019;-91
2022/03/14 10:22:20;;;;;;;24.67;10.63;;;10.20;99.90;;;;;;6252937;22;20502;-90
2022/03/14 10:25:10;;;;;;;22.30;8.45;;;10.20;99.90;;;;;;6250671;22;20450;-91
2022/03/14 10:27:45;;;;;;;16.67;8.32;;;10.20;99.90;;;;;;6276601;22;20406;-91
2022/03/14 10:30:30;;;;;;;28.00;10.82;;;10.30;99.90;;;;;;6278477;22;20023;-91
2022/03/14 10:33:08;;;;;;;21.65;9.38;;;10.30;99.90;;;;;;6252880;22;20015;-89
2022/03/14 10:35:41;;;;;;;23.42;10.45;;;10.30;99.90;;;;;;6252506;22;20099;-89
2022/03/14 10:38:21;;;;;;;18.27;8.88;;;10.30;99.90;;;;;;6252841;22;20020;-91
2022/03/14 10:40:51;;;;;;;21.30;10.85;;;10.40;99.90;;;;;;6277937;22;20019;-90
2022/03/14 10:43:38;;;;;;;16.85;8.38;;;10.40;99.90;;;;;;6227671;22;20016;-90
2022/03/14 10:46:07;;;;;;;26.15;8.05;;;10.40;99.90;;;;;;6227289;22;20023;-91
2022/03/14 10:48:45;;;;;;;24.15;8.80;;;10.40;99.90;;;;;;6278388;22;20066;-92
2022/03/14 10:51:20;;;;;;;20.02;9.50;;;10.40;99.90;;;;;;6276679;22;20020;-91
2022/03/14 10:53:50;;;;;;;20.30;8.70;;;10.50;99.90;;;;;;6251852;22;20110;-90
2022/03/14 10:56:27;;;;;;;25.65;10.18;;;10.50;99.90;;;;;;6226855;22;20020;-90
2022/03/14 10:58:56;;;;;;;18.42;9.15;;;10.50;99.90;;;;;;6277881;22;20027;-90
2022/03/14 11:01:24;;;;;;;23.38;9.30;;;10.50;99.90;;;;;;6250600;22;20020;-91
2022/03/14 11:03:58;;;;;;;20.10;7.57;;;10.60;99.90;;;;;;6277391;22;20011;-90
2022/03/14 11:06:28;;;;;;;23.20;8.77;;;10.70;99.90;;;;;;6250713;22;20347;-90
2022/03/14 11:08:58;;;;;;;15.65;7.82;;;10.70;99.90;;;;;;6251220;22;20021;-90
2022/03/14 11:11:25;;;;;;;25.70;9.30;;;10.70;99.90;;;;;;6277118;22;20483;-91
2022/03/14 11:13:57;;;;;;;22.42;7.25;;;10.70;99.90;;;;;;6251071;22;20074;-89
2022/03/14 11:16:29;;;;;;;18.92;7.82;;;10.70;99.90;;;;;;6277852;22;20073;-90
2022/03/14 11:18:57;;;;;;;21.92;8.23;;;10.70;99.90;;;;;;6278065;22;20012;-90
2022/03/14 11:21:31;;;;;;;16.00;7.38;;;10.80;99.90;;;;;;6277076;22;20011;-90
2022/03/14 11:24:01;;;;;;;23.13;7.93;;;10.80;99.90;;;;;;6275805;22;20065;-92
2022/03/14 11:26:30;;;;;;;18.20;7.75;;;10.90;99.90;;;;;;6277582;22;20011;-91
2022/03/14 11:28:59;;;;;;;12.55;6.28;;;10.90;99.90;;;;;;6250746;22;20018;-90
2022/03/14 11:31:36;;;;;;;21.08;7.13;;;11.00;99.90;;;;;;6251693;22;20386;-91
2022/03/14 11:34:32;;;;;;;16.45;7.70;;;11.00;99.90;;;;;;6276526;22;20074;-90
2022/03/14 11:41:49;;;;;;;20.02;6.22;;;11.10;99.90;;;;;;6250830;22;20028;-91
2022/03/14 11:44:54;;;;;;;21.58;6.28;;;11.10;99.90;;;;;;6259050;22;20090;-90
2022/03/14 11:47:32;;;;;;;16.08;6.68;;;11.20;99.90;;;;;;6250972;22;20106;-90
2022/03/14 11:50:04;;;;;;;18.80;7.00;;;11.20;99.90;;;;;;6277908;22;20011;-90
2022/03/14 11:52:47;;;;;;;19.13;6.53;;;11.30;99.90;;;;;;6250812;22;20015;-90
2022/03/14 11:55:27;;;;;;;17.98;6.10;;;11.30;99.90;;;;;;6227996;22;20291;-90
2022/03/14 11:58:02;;;;;;;;;;;11.30;99.90;;;;;;6252414;22;20058;-89
2022/03/14 12:00:39;;;;;;;11.93;5.10;;;11.30;99.90;;;;;;6251166;22;19915;-89
2022/03/14 12:03:41;;;;;;;8.23;4.55;;;11.30;99.90;;;;;;6276575;22;20094;-89
2022/03/14 12:06:12;;;;;;;16.65;4.93;;;11.30;99.90;;;;;;6250582;22;20054;-90
2022/03/14 12:08:51;;;;;;;16.75;5.28;;;11.40;99.90;;;;;;6250539;22;20023;-90
2022/03/14 12:11:35;;;;;;;17.00;5.45;;;11.40;99.90;;;;;;6275982;22;20342;-90
2022/03/14 12:14:12;;;;;;;17.48;3.95;;;11.40;99.90;;;;;;6277180;22;20016;-90
2022/03/14 12:16:43;;;;;;;24.75;5.53;;;11.40;99.90;;;;;;6226486;22;20030;-91
2022/03/14 12:19:32;;;;;;;16.13;5.30;;;11.40;99.90;;;;;;6277375;22;20062;-91
2022/03/14 12:22:03;;;;;;;13.65;4.45;;;11.50;99.90;;;;;;6277087;22;20439;-90
2022/03/14 12:24:36;;;;;;;14.95;4.63;;;11.60;99.90;;;;;;6275201;22;20016;-90
2022/03/14 12:27:29;;;;;;;8.63;4.57;;;11.60;99.90;;;;;;6249558;22;20405;-90
2022/03/14 12:29:58;;;;;;;9.75;3.95;;;11.70;99.90;;;;;;6275636;22;20027;-91
2022/03/14 12:32:31;;;;;;;16.77;4.40;;;11.70;99.90;;;;;;6249117;22;20020;-90
2022/03/14 12:35:06;;;;;;;10.77;4.30;;;11.70;99.90;;;;;;6250976;22;20043;-90
2022/03/14 12:37:39;;;;;;;12.65;3.90;;;11.70;99.90;;;;;;6250636;22;20023;-91
2022/03/14 12:40:34;;;;;;;17.63;4.35;;;11.80;99.90;;;;;;6251057;22;20027;-91
2022/03/14 12:43:01;;;;;;;8.68;3.25;;;11.80;99.90;;;;;;6275505;22;20343;-91
2022/03/14 12:45:29;;;;;;;14.38;3.25;;;11.80;99.90;;;;;;6250463;22;20015;-91
2022/03/14 12:48:07;;;;;;;7.63;2.85;;;11.90;99.90;;;;;;6249581;22;20427;-90
2022/03/14 12:50:42;;;;;;;14.85;4.07;;;11.90;99.90;;;;;;6276566;22;20015;-90
2022/03/14 12:53:15;;;;;;;11.50;3.53;;;12.00;99.90;;;;;;6276912;22;20027;-90
2022/03/14 12:55:48;;;;;;;17.25;3.50;;;11.90;99.90;;;;;;6277051;22;20019;-90
2022/03/14 12:58:20;;;;;;;13.60;3.80;;;11.90;99.90;;;;;;6250526;22;20458;-89
2022/03/14 13:00:53;;;;;;;8.45;2.75;;;12.00;99.90;;;;;;6276771;22;20039;-90
2022/03/14 13:03:27;;;;;;;14.25;2.80;;;12.00;99.90;;;;;;6249625;22;20012;-90
2022/03/14 13:05:59;;;;;;;8.48;2.97;;;12.00;99.90;;;;;;6277493;22;20019;-90
2022/03/14 13:08:31;;;;;;;18.30;3.58;;;12.10;99.90;;;;;;6249924;22;20012;-90
2022/03/14 13:11:03;;;;;;;13.32;3.08;;;12.20;99.90;;;;;;6276766;22;20016;-90
2022/03/14 13:13:38;;;;;;;13.73;3.13;;;12.20;99.90;;;;;;6251528;22;20046;-90
2022/03/14 13:16:06;;;;;;;9.43;2.63;;;12.20;99.90;;;;;;6276117;22;20463;-90
2022/03/14 13:18:44;;;;;;;10.95;2.78;;;12.30;99.90;;;;;;6276508;22;20037;-90
2022/03/14 13:21:25;;;;;;;10.75;2.63;;;12.30;99.90;;;;;;6249216;22;20027;-90